x

San Francisco - 18nm West Of San Francisco, Ca (46026) Wave Buoy

10:50pm - Fri 29th Jul 2016 All times are PDT. -7 hours from GMT.

  • Sig Wave height 3.9ft
  • Swell Direction
  • Peak Period 10s
  • Average Period 7s
  • Wind
    2mph, 4mph gusts
  • Sea Temp 55°f
  • Air Temp 53°f
  • Sea Pressure 1010mb
  • San Francisco - 18nm West Of San Francisco, Ca
  • San Francisco - 18nm West Of San Francisco, Ca

More Historic Weather Station data

Upgrade to MSW Pro to gain access to the past 30 days of data for over 8000 Wavebouys and Weather Stations around the globe.

Join Pro

Comparision Forecast

View Surf forecast
   
Fri 07/29 10:50pm 4ft 10s 7s 2 4 mph 1010mb 55f 53f
9:50pm 3.5ft 9s 7s 2 7 mph 1010.3mb 55f 53f
8:50pm 4ft 10s 7s 7 9 mph 1010mb 55f 53f
7:50pm 4ft 10s 7s 7 9 mph 1009.8mb 55f 54f
6:50pm 4ft 9s 7s 9 11 mph 1009.6mb 56f 54f
5:50pm 4.5ft 9s 7s 7 9 mph 1010.2mb 56f 54f
4:50pm 4.5ft 9s 7s 9 11 mph 1010.5mb 56f 54f
3:50pm 3.5ft 9s 6s 9 11 mph 1010.7mb 56f 54f
2:50pm 3.5ft 10s 7s 9 11 mph 1011.4mb 56f 54f
1:50pm 4ft 9s 7s 7 9 mph 1011.8mb 56f 53f
12:50pm 4.5ft 9s 7s 7 9 mph 1012.2mb 56f 53f
11:50am 4.5ft 9s 7s 4 7 mph 1012.5mb 55f 52f
10:50am 4.5ft 9s 7s 2
mph
1012.4mb 55f 52f
9:50am 4.5ft 9s 7s 2 4 mph 1012.3mb 54f 51f
8:50am 4ft 9s 7s 2 4 mph 1012.2mb 54f 51f
7:50am 4.5ft 9s 7s 2 4 mph 1012.2mb 54f 51f
6:50am 4ft 10s 7s 4 7 mph 1011.8mb 54f 51f
5:50am 4ft 9s 7s 4 7 mph 1011.5mb 54f 51f
4:50am 3.5ft 9s 6s 7 9 mph 1011.3mb 54f 51f
3:50am 3.5ft 10s 7s 7 9 mph 1011.4mb 54f 51f
2:50am 3.5ft 9s 7s 9 11 mph 1011.4mb 54f 51f
1:50am 3.5ft 9s 7s 9 11 mph 1011.7mb 54f 51f
12:50am 3.5ft 9s 7s 7 11 mph 1012mb 54f 52f
Thu 07/28 11:50pm 3.5ft 10s 6s 7 11 mph 1012.6mb 54f 52f
10:50pm 4.5ft 10s 7s 7 9 mph 1012.7mb 54f 52f
9:50pm 4.5ft 9s 7s 9 11 mph 1012.4mb 54f 52f
8:50pm 4.5ft 9s 7s 7 9 mph 1011.8mb 54f 52f
7:50pm 4.5ft 8s 7s 9 11 mph 1011.8mb 54f 52f
6:50pm 4.5ft 8s 7s 9 11 mph 1011.9mb 54f 51f
5:50pm 4.5ft 9s 7s 9 11 mph 1012.2mb 55f 51f
3:50pm 5ft 9s 7s 7 11 mph 1013mb 55f 51f
2:50pm 5ft 10s 7s 9
mph
1013.5mb 55f 51f
1:50pm 4ft 9s 7s 9 11 mph 1013.6mb 54f 51f
12:50pm 4.5ft 10s 7s 4 7 mph 1014.1mb 54f 52f
10:50am 4.5ft 9s 6s 4 7 mph 1014.3mb 54f 52f
9:50am 4.5ft 9s 7s 2 4 mph 1014mb 53f 52f
8:50am 4.5ft 9s 7s 2
mph
1014.1mb 53f 51f
7:50am 5.5ft 10s 7s 4 7 mph 1013.6mb 53f 51f
6:50am 5ft 10s 7s 7 9 mph 1013.2mb 53f 51f
5:50am 5.5ft 10s 7s 4
mph
1013.1mb 54f 51f
4:50am 5ft 9s 7s 4
mph
1013.2mb 54f 51f
3:50am 5ft 10s 7s 7 9 mph 1013mb 53f 51f
2:50am 4.5ft 9s 7s 7 11 mph 1013.1mb 53f 51f
1:50am 4.5ft 10s 7s 7 9 mph 1013.4mb 53f 51f
12:50am 4.5ft 10s 7s 9 11 mph 1013.7mb 53f 51f
Wed 07/27 11:50pm 4.5ft 10s 7s 9 13 mph 1013.9mb 53f 51f
10:50pm 5ft 8s 7s 9 11 mph 1014mb 53f 51f
9:50pm 5ft 10s 7s 7 11 mph 1014mb 53f 51f
8:50pm 5ft 10s 7s 7 11 mph 1013.3mb 53f 51f
7:50pm 5ft 10s 7s 9 13 mph 1013.1mb 53f 51f
6:50pm 5ft 10s 7s 13 16 mph 1012.9mb 54f 51f
5:50pm 5ft 10s 7s 11 13 mph 1013.2mb 54f 52f
4:50pm 5.5ft 10s 7s 9 11 mph 1013.2mb 54f 52f
3:50pm 5ft 10s 7s 11 13 mph 1013.4mb 54f 51f
2:50pm 5ft 9s 7s 11 13 mph 1013.8mb 53f 52f
1:50pm 5ft 10s 7s 11 13 mph 1013.9mb 53f 52f
12:50pm 5ft 10s 7s 9
mph
1014mb 54f 52f
11:50am 5ft 10s 7s 4 7 mph 1014.1mb 53f 51f
10:50am 5ft 10s 7s 7 9 mph 1013.9mb 53f 51f
9:50am 5ft 9s 7s 4 7 mph 1013.6mb 53f 51f
8:50am 5ft 9s 7s 7
mph
1013.5mb 54f 50f
7:50am 5ft 10s 7s 7 9 mph 1013.1mb 54f 51f
6:50am 4.5ft 9s 7s 7
mph
1012.6mb 54f 52f
5:50am 5ft 9s 7s 4 7 mph 1012.2mb 54f 53f
4:50am 4.5ft 9s 7s 2
mph
1012mb 53f 53f
3:50am 5.5ft 9s 7s 2
mph
1012mb 53f 53f
1:50am 5ft 9s 7s 2 4 mph 1012.2mb 53f 53f
12:50am 4.5ft 9s 7s 4 7 mph 1012mb 53f 53f
Tue 07/26 11:50pm 4.5ft 10s 7s 2 4 mph 1012.1mb 53f 53f
10:50pm 4.5ft 10s 7s 4 7 mph 1012.4mb 54f 52f
9:50pm 5ft 10s 7s 9 13 mph 1012mb 53f 51f
8:50pm 5ft 9s 7s 9 11 mph 1011.9mb 54f 51f
7:50pm 5.5ft 9s 7s 11 13 mph 1011.6mb 53f 51f
6:50pm 5ft 9s 7s 13 16 mph 1011.4mb 54f 51f
5:50pm 5.5ft 9s 7s 11 13 mph 1011.7mb 54f 52f
4:50pm 5ft 9s 7s 7 9 mph 1012mb 55f 51f
3:50pm 6ft 10s 8s 4 9 mph 1012.7mb 56f 51f
2:50pm 5ft 10s 7s 4 7 mph 1013.2mb 55f 52f
1:50pm 5ft 9s 7s 4
mph
1013.5mb 56f 51f
12:50pm 5ft 9s 7s 2 4 mph 1013.7mb 55f 51f
11:50am 5ft 9s 7s  -  2 mph 1014mb 55f 51f
10:50am 5ft 9s 7s 4 7 mph 1014.3mb 54f 51f
9:50am 5.5ft 8s 7s 2 7 mph 1013.9mb 54f 50f
8:50am 5ft 9s 7s 2 4 mph 1013.9mb 54f 49f
7:50am 6ft 9s 7s 2
mph
1013.7mb 53f 48f